sensor_id;sensor_type;location;lat;lon;timestamp;P1;durP1;ratioP1;P2;durP2;ratioP2
36377;SDS011;22402;42.746;23.606;2024-02-15T00:00:19;28.50;;;16.70;;
36377;SDS011;22402;42.746;23.606;2024-02-15T00:02:45;27.47;;;17.90;;
36377;SDS011;22402;42.746;23.606;2024-02-15T00:05:11;25.20;;;16.20;;
36377;SDS011;22402;42.746;23.606;2024-02-15T00:07:38;23.13;;;14.33;;
36377;SDS011;22402;42.746;23.606;2024-02-15T00:10:04;26.53;;;16.13;;
36377;SDS011;22402;42.746;23.606;2024-02-15T00:12:30;29.60;;;16.70;;
36377;SDS011;22402;42.746;23.606;2024-02-15T00:14:55;29.27;;;17.17;;
36377;SDS011;22402;42.746;23.606;2024-02-15T00:17:24;28.10;;;18.17;;
36377;SDS011;22402;42.746;23.606;2024-02-15T00:19:50;31.60;;;15.80;;
36377;SDS011;22402;42.746;23.606;2024-02-15T00:22:16;24.23;;;17.10;;
36377;SDS011;22402;42.746;23.606;2024-02-15T00:24:42;27.17;;;18.17;;
36377;SDS011;22402;42.746;23.606;2024-02-15T00:27:07;25.93;;;16.57;;
36377;SDS011;22402;42.746;23.606;2024-02-15T00:29:33;24.47;;;17.97;;
36377;SDS011;22402;42.746;23.606;2024-02-15T00:32:00;31.40;;;18.50;;
36377;SDS011;22402;42.746;23.606;2024-02-15T00:34:26;27.43;;;17.83;;
36377;SDS011;22402;42.746;23.606;2024-02-15T00:36:52;24.97;;;16.03;;
36377;SDS011;22402;42.746;23.606;2024-02-15T00:39:17;29.40;;;17.97;;
36377;SDS011;22402;42.746;23.606;2024-02-15T00:41:43;26.23;;;18.73;;
36377;SDS011;22402;42.746;23.606;2024-02-15T00:44:10;29.10;;;19.10;;
36377;SDS011;22402;42.746;23.606;2024-02-15T00:46:36;22.43;;;16.13;;
36377;SDS011;22402;42.746;23.606;2024-02-15T00:49:06;27.17;;;17.37;;
36377;SDS011;22402;42.746;23.606;2024-02-15T00:51:35;26.37;;;17.60;;
36377;SDS011;22402;42.746;23.606;2024-02-15T00:54:01;32.93;;;17.87;;
36377;SDS011;22402;42.746;23.606;2024-02-15T00:56:27;28.33;;;16.37;;
36377;SDS011;22402;42.746;23.606;2024-02-15T00:58:55;25.67;;;15.13;;
36377;SDS011;22402;42.746;23.606;2024-02-15T01:01:20;23.57;;;15.73;;
36377;SDS011;22402;42.746;23.606;2024-02-15T01:03:46;27.87;;;17.37;;
36377;SDS011;22402;42.746;23.606;2024-02-15T01:06:11;27.57;;;16.60;;
36377;SDS011;22402;42.746;23.606;2024-02-15T01:08:37;25.27;;;15.60;;
36377;SDS011;22402;42.746;23.606;2024-02-15T01:11:04;55.57;;;33.20;;
36377;SDS011;22402;42.746;23.606;2024-02-15T01:13:29;51.77;;;32.33;;
36377;SDS011;22402;42.746;23.606;2024-02-15T01:15:55;41.13;;;24.87;;
36377;SDS011;22402;42.746;23.606;2024-02-15T01:18:20;32.10;;;19.40;;
36377;SDS011;22402;42.746;23.606;2024-02-15T01:20:46;33.03;;;20.40;;
36377;SDS011;22402;42.746;23.606;2024-02-15T01:23:11;26.23;;;17.80;;
36377;SDS011;22402;42.746;23.606;2024-02-15T01:25:37;22.23;;;14.83;;
36377;SDS011;22402;42.746;23.606;2024-02-15T01:28:02;25.50;;;15.40;;
36377;SDS011;22402;42.746;23.606;2024-02-15T01:30:28;23.43;;;16.10;;
36377;SDS011;22402;42.746;23.606;2024-02-15T01:32:54;22.33;;;15.10;;
36377;SDS011;22402;42.746;23.606;2024-02-15T01:35:23;26.93;;;16.13;;
36377;SDS011;22402;42.746;23.606;2024-02-15T01:37:49;25.17;;;15.47;;
36377;SDS011;22402;42.746;23.606;2024-02-15T01:40:15;32.30;;;17.60;;
36377;SDS011;22402;42.746;23.606;2024-02-15T01:42:41;25.20;;;15.10;;
36377;SDS011;22402;42.746;23.606;2024-02-15T01:45:06;22.50;;;15.43;;
36377;SDS011;22402;42.746;23.606;2024-02-15T01:47:32;29.73;;;16.20;;
36377;SDS011;22402;42.746;23.606;2024-02-15T01:49:58;22.00;;;15.20;;
36377;SDS011;22402;42.746;23.606;2024-02-15T01:52:24;25.70;;;15.27;;
36377;SDS011;22402;42.746;23.606;2024-02-15T01:54:50;23.07;;;15.30;;
36377;SDS011;22402;42.746;23.606;2024-02-15T01:57:18;21.67;;;15.10;;
36377;SDS011;22402;42.746;23.606;2024-02-15T01:59:46;20.83;;;14.60;;
36377;SDS011;22402;42.746;23.606;2024-02-15T02:02:12;27.23;;;15.87;;
36377;SDS011;22402;42.746;23.606;2024-02-15T02:04:40;20.77;;;14.57;;
36377;SDS011;22402;42.746;23.606;2024-02-15T02:07:06;31.00;;;15.67;;
36377;SDS011;22402;42.746;23.606;2024-02-15T02:09:32;28.87;;;16.03;;
36377;SDS011;22402;42.746;23.606;2024-02-15T02:11:58;23.63;;;16.53;;
36377;SDS011;22402;42.746;23.606;2024-02-15T02:14:25;24.03;;;14.63;;
36377;SDS011;22402;42.746;23.606;2024-02-15T02:16:51;23.67;;;14.77;;
36377;SDS011;22402;42.746;23.606;2024-02-15T02:19:16;25.97;;;17.27;;
36377;SDS011;22402;42.746;23.606;2024-02-15T02:21:42;24.97;;;15.63;;
36377;SDS011;22402;42.746;23.606;2024-02-15T02:24:19;22.17;;;14.20;;
36377;SDS011;22402;42.746;23.606;2024-02-15T02:26:48;24.00;;;15.17;;
36377;SDS011;22402;42.746;23.606;2024-02-15T02:29:15;26.33;;;16.67;;
36377;SDS011;22402;42.746;23.606;2024-02-15T02:31:41;25.87;;;15.23;;
36377;SDS011;22402;42.746;23.606;2024-02-15T02:34:07;26.10;;;16.30;;
36377;SDS011;22402;42.746;23.606;2024-02-15T02:36:33;28.20;;;16.33;;
36377;SDS011;22402;42.746;23.606;2024-02-15T02:38:59;27.33;;;17.27;;
36377;SDS011;22402;42.746;23.606;2024-02-15T02:41:26;29.63;;;20.47;;
36377;SDS011;22402;42.746;23.606;2024-02-15T02:43:53;36.83;;;21.97;;
36377;SDS011;22402;42.746;23.606;2024-02-15T02:46:20;36.17;;;20.57;;
36377;SDS011;22402;42.746;23.606;2024-02-15T02:48:46;33.83;;;20.77;;
36377;SDS011;22402;42.746;23.606;2024-02-15T02:51:11;29.03;;;18.53;;
36377;SDS011;22402;42.746;23.606;2024-02-15T02:53:37;28.97;;;16.93;;
36377;SDS011;22402;42.746;23.606;2024-02-15T02:56:03;31.80;;;17.10;;
36377;SDS011;22402;42.746;23.606;2024-02-15T02:58:29;23.10;;;15.97;;
36377;SDS011;22402;42.746;23.606;2024-02-15T03:00:54;29.90;;;16.80;;
36377;SDS011;22402;42.746;23.606;2024-02-15T03:03:21;27.83;;;17.80;;
36377;SDS011;22402;42.746;23.606;2024-02-15T03:05:49;26.50;;;16.73;;
36377;SDS011;22402;42.746;23.606;2024-02-15T03:08:14;36.97;;;21.47;;
36377;SDS011;22402;42.746;23.606;2024-02-15T03:10:42;35.83;;;20.70;;
36377;SDS011;22402;42.746;23.606;2024-02-15T03:13:08;33.20;;;20.07;;
36377;SDS011;22402;42.746;23.606;2024-02-15T03:15:34;35.60;;;20.50;;
36377;SDS011;22402;42.746;23.606;2024-02-15T03:18:00;44.50;;;21.90;;
36377;SDS011;22402;42.746;23.606;2024-02-15T03:20:31;44.43;;;22.27;;
36377;SDS011;22402;42.746;23.606;2024-02-15T03:22:59;36.40;;;22.00;;
36377;SDS011;22402;42.746;23.606;2024-02-15T03:25:25;37.80;;;22.17;;
36377;SDS011;22402;42.746;23.606;2024-02-15T03:27:54;42.50;;;22.80;;
36377;SDS011;22402;42.746;23.606;2024-02-15T03:30:24;43.73;;;24.13;;
36377;SDS011;22402;42.746;23.606;2024-02-15T03:32:51;42.90;;;22.97;;
36377;SDS011;22402;42.746;23.606;2024-02-15T03:35:18;38.70;;;22.07;;
36377;SDS011;22402;42.746;23.606;2024-02-15T03:37:45;36.10;;;19.73;;
36377;SDS011;22402;42.746;23.606;2024-02-15T03:40:11;33.20;;;20.80;;
36377;SDS011;22402;42.746;23.606;2024-02-15T03:42:36;30.03;;;19.33;;
36377;SDS011;22402;42.746;23.606;2024-02-15T03:45:05;27.90;;;18.53;;
36377;SDS011;22402;42.746;23.606;2024-02-15T03:47:32;31.23;;;17.10;;
36377;SDS011;22402;42.746;23.606;2024-02-15T03:49:58;27.97;;;17.20;;
36377;SDS011;22402;42.746;23.606;2024-02-15T03:52:24;21.23;;;15.67;;
36377;SDS011;22402;42.746;23.606;2024-02-15T03:54:50;24.30;;;16.40;;
36377;SDS011;22402;42.746;23.606;2024-02-15T03:57:15;33.23;;;17.60;;
36377;SDS011;22402;42.746;23.606;2024-02-15T03:59:42;31.90;;;18.50;;
36377;SDS011;22402;42.746;23.606;2024-02-15T04:02:08;31.27;;;18.27;;
36377;SDS011;22402;42.746;23.606;2024-02-15T04:04:39;31.67;;;17.20;;
36377;SDS011;22402;42.746;23.606;2024-02-15T04:07:07;25.17;;;15.63;;
36377;SDS011;22402;42.746;23.606;2024-02-15T04:09:33;27.80;;;15.63;;
36377;SDS011;22402;42.746;23.606;2024-02-15T04:12:00;25.13;;;15.17;;
36377;SDS011;22402;42.746;23.606;2024-02-15T04:14:26;26.10;;;15.50;;
36377;SDS011;22402;42.746;23.606;2024-02-15T04:16:53;22.43;;;15.73;;
36377;SDS011;22402;42.746;23.606;2024-02-15T04:19:18;30.30;;;19.03;;
36377;SDS011;22402;42.746;23.606;2024-02-15T04:21:45;31.00;;;17.90;;
36377;SDS011;22402;42.746;23.606;2024-02-15T04:24:12;41.80;;;19.30;;
36377;SDS011;22402;42.746;23.606;2024-02-15T04:26:38;36.83;;;19.80;;
36377;SDS011;22402;42.746;23.606;2024-02-15T04:29:03;31.00;;;18.37;;
36377;SDS011;22402;42.746;23.606;2024-02-15T04:31:29;36.07;;;17.87;;
36377;SDS011;22402;42.746;23.606;2024-02-15T04:33:59;27.50;;;16.57;;
36377;SDS011;22402;42.746;23.606;2024-02-15T04:36:24;28.50;;;15.87;;
36377;SDS011;22402;42.746;23.606;2024-02-15T04:38:51;33.10;;;17.63;;
36377;SDS011;22402;42.746;23.606;2024-02-15T04:41:17;26.20;;;17.20;;
36377;SDS011;22402;42.746;23.606;2024-02-15T04:43:51;26.97;;;16.70;;
36377;SDS011;22402;42.746;23.606;2024-02-15T04:46:19;31.03;;;18.53;;
36377;SDS011;22402;42.746;23.606;2024-02-15T04:48:49;28.50;;;18.47;;
36377;SDS011;22402;42.746;23.606;2024-02-15T04:51:15;32.53;;;18.97;;
36377;SDS011;22402;42.746;23.606;2024-02-15T04:53:42;32.67;;;18.00;;
36377;SDS011;22402;42.746;23.606;2024-02-15T04:56:08;22.83;;;15.50;;
36377;SDS011;22402;42.746;23.606;2024-02-15T04:58:38;31.83;;;18.67;;
36377;SDS011;22402;42.746;23.606;2024-02-15T05:01:13;29.53;;;18.27;;
36377;SDS011;22402;42.746;23.606;2024-02-15T05:03:43;26.13;;;17.37;;
36377;SDS011;22402;42.746;23.606;2024-02-15T05:06:12;30.77;;;17.60;;
36377;SDS011;22402;42.746;23.606;2024-02-15T05:08:40;28.87;;;17.13;;
36377;SDS011;22402;42.746;23.606;2024-02-15T05:11:09;34.60;;;17.73;;
36377;SDS011;22402;42.746;23.606;2024-02-15T05:13:43;30.43;;;19.00;;
36377;SDS011;22402;42.746;23.606;2024-02-15T05:16:12;30.37;;;17.37;;
36377;SDS011;22402;42.746;23.606;2024-02-15T05:18:37;33.10;;;17.93;;
36377;SDS011;22402;42.746;23.606;2024-02-15T05:21:05;28.37;;;17.10;;
36377;SDS011;22402;42.746;23.606;2024-02-15T05:23:38;35.87;;;18.60;;
36377;SDS011;22402;42.746;23.606;2024-02-15T05:26:08;36.90;;;18.87;;
36377;SDS011;22402;42.746;23.606;2024-02-15T05:28:34;34.70;;;20.17;;
36377;SDS011;22402;42.746;23.606;2024-02-15T05:33:38;69.87;;;29.33;;
36377;SDS011;22402;42.746;23.606;2024-02-15T05:36:15;30.17;;;16.77;;
36377;SDS011;22402;42.746;23.606;2024-02-15T05:38:46;29.57;;;18.20;;
36377;SDS011;22402;42.746;23.606;2024-02-15T05:41:16;35.57;;;19.67;;
36377;SDS011;22402;42.746;23.606;2024-02-15T05:43:43;32.77;;;20.00;;
36377;SDS011;22402;42.746;23.606;2024-02-15T05:46:14;34.80;;;19.73;;
36377;SDS011;22402;42.746;23.606;2024-02-15T05:48:55;46.70;;;21.20;;
36377;SDS011;22402;42.746;23.606;2024-02-15T05:51:21;33.17;;;20.20;;
36377;SDS011;22402;42.746;23.606;2024-02-15T05:53:47;33.77;;;21.37;;
36377;SDS011;22402;42.746;23.606;2024-02-15T05:56:14;37.40;;;21.50;;
36377;SDS011;22402;42.746;23.606;2024-02-15T05:58:41;32.47;;;18.53;;
36377;SDS011;22402;42.746;23.606;2024-02-15T06:01:07;39.63;;;21.73;;
36377;SDS011;22402;42.746;23.606;2024-02-15T06:03:37;37.43;;;20.67;;
36377;SDS011;22402;42.746;23.606;2024-02-15T06:06:03;38.83;;;21.40;;
36377;SDS011;22402;42.746;23.606;2024-02-15T06:08:33;29.47;;;17.53;;
36377;SDS011;22402;42.746;23.606;2024-02-15T06:10:59;38.03;;;20.47;;
36377;SDS011;22402;42.746;23.606;2024-02-15T06:13:25;37.30;;;19.87;;
36377;SDS011;22402;42.746;23.606;2024-02-15T06:15:51;33.60;;;20.40;;
36377;SDS011;22402;42.746;23.606;2024-02-15T06:18:19;35.73;;;19.97;;
36377;SDS011;22402;42.746;23.606;2024-02-15T06:20:52;41.47;;;21.20;;
36377;SDS011;22402;42.746;23.606;2024-02-15T06:23:27;30.93;;;19.20;;
36377;SDS011;22402;42.746;23.606;2024-02-15T06:25:54;28.70;;;18.17;;
36377;SDS011;22402;42.746;23.606;2024-02-15T06:28:26;33.60;;;18.57;;
36377;SDS011;22402;42.746;23.606;2024-02-15T06:31:10;30.93;;;18.10;;
36377;SDS011;22402;42.746;23.606;2024-02-15T06:33:55;36.10;;;19.70;;
36377;SDS011;22402;42.746;23.606;2024-02-15T06:36:46;31.20;;;18.37;;
36377;SDS011;22402;42.746;23.606;2024-02-15T06:39:31;27.27;;;17.83;;
36377;SDS011;22402;42.746;23.606;2024-02-15T06:42:06;32.27;;;19.57;;
36377;SDS011;22402;42.746;23.606;2024-02-15T06:44:43;35.47;;;19.80;;
36377;SDS011;22402;42.746;23.606;2024-02-15T06:47:09;30.60;;;16.87;;
36377;SDS011;22402;42.746;23.606;2024-02-15T06:49:39;37.50;;;19.70;;
36377;SDS011;22402;42.746;23.606;2024-02-15T06:52:08;40.97;;;20.27;;
36377;SDS011;22402;42.746;23.606;2024-02-15T06:54:41;33.13;;;18.00;;
36377;SDS011;22402;42.746;23.606;2024-02-15T06:57:06;39.90;;;20.17;;
36377;SDS011;22402;42.746;23.606;2024-02-15T06:59:33;37.23;;;18.97;;
36377;SDS011;22402;42.746;23.606;2024-02-15T07:02:05;30.40;;;18.77;;
36377;SDS011;22402;42.746;23.606;2024-02-15T07:04:30;32.90;;;20.40;;
36377;SDS011;22402;42.746;23.606;2024-02-15T07:06:57;30.77;;;19.23;;
36377;SDS011;22402;42.746;23.606;2024-02-15T07:09:23;34.57;;;20.27;;
36377;SDS011;22402;42.746;23.606;2024-02-15T07:11:52;35.37;;;19.07;;
36377;SDS011;22402;42.746;23.606;2024-02-15T07:14:18;36.27;;;18.50;;
36377;SDS011;22402;42.746;23.606;2024-02-15T07:16:48;35.53;;;18.80;;
36377;SDS011;22402;42.746;23.606;2024-02-15T07:19:14;31.83;;;18.10;;
36377;SDS011;22402;42.746;23.606;2024-02-15T07:21:40;33.07;;;17.67;;
36377;SDS011;22402;42.746;23.606;2024-02-15T07:24:06;37.27;;;19.60;;
36377;SDS011;22402;42.746;23.606;2024-02-15T07:26:32;37.17;;;17.90;;
36377;SDS011;22402;42.746;23.606;2024-02-15T07:29:00;32.93;;;16.30;;
36377;SDS011;22402;42.746;23.606;2024-02-15T07:31:29;28.23;;;15.70;;
36377;SDS011;22402;42.746;23.606;2024-02-15T07:33:54;29.73;;;15.30;;
36377;SDS011;22402;42.746;23.606;2024-02-15T07:36:20;30.67;;;14.50;;
36377;SDS011;22402;42.746;23.606;2024-02-15T07:38:47;27.03;;;14.10;;
36377;SDS011;22402;42.746;23.606;2024-02-15T07:41:14;23.23;;;11.97;;
36377;SDS011;22402;42.746;23.606;2024-02-15T07:43:40;28.80;;;13.00;;
36377;SDS011;22402;42.746;23.606;2024-02-15T07:46:06;21.27;;;10.83;;
36377;SDS011;22402;42.746;23.606;2024-02-15T07:48:32;30.53;;;14.10;;
36377;SDS011;22402;42.746;23.606;2024-02-15T07:50:58;26.27;;;12.70;;
36377;SDS011;22402;42.746;23.606;2024-02-15T07:53:24;24.47;;;11.60;;
36377;SDS011;22402;42.746;23.606;2024-02-15T07:55:50;29.63;;;12.67;;
36377;SDS011;22402;42.746;23.606;2024-02-15T07:58:15;31.27;;;12.73;;
36377;SDS011;22402;42.746;23.606;2024-02-15T08:00:43;36.77;;;12.30;;
36377;SDS011;22402;42.746;23.606;2024-02-15T08:03:10;22.23;;;10.43;;
36377;SDS011;22402;42.746;23.606;2024-02-15T08:05:35;24.03;;;11.10;;
36377;SDS011;22402;42.746;23.606;2024-02-15T08:08:02;26.20;;;10.93;;
36377;SDS011;22402;42.746;23.606;2024-02-15T08:10:28;21.00;;;10.77;;
36377;SDS011;22402;42.746;23.606;2024-02-15T08:12:54;18.33;;;9.40;;
36377;SDS011;22402;42.746;23.606;2024-02-15T08:15:22;18.30;;;10.30;;
36377;SDS011;22402;42.746;23.606;2024-02-15T08:17:49;22.37;;;10.10;;
36377;SDS011;22402;42.746;23.606;2024-02-15T08:20:15;17.57;;;8.80;;
36377;SDS011;22402;42.746;23.606;2024-02-15T08:22:46;21.93;;;10.20;;
36377;SDS011;22402;42.746;23.606;2024-02-15T08:25:12;22.60;;;9.30;;
36377;SDS011;22402;42.746;23.606;2024-02-15T08:27:40;20.90;;;8.97;;
36377;SDS011;22402;42.746;23.606;2024-02-15T08:30:14;24.53;;;11.47;;
36377;SDS011;22402;42.746;23.606;2024-02-15T08:32:41;27.70;;;11.20;;
36377;SDS011;22402;42.746;23.606;2024-02-15T08:35:09;27.90;;;10.80;;
36377;SDS011;22402;42.746;23.606;2024-02-15T08:37:35;26.17;;;11.03;;
36377;SDS011;22402;42.746;23.606;2024-02-15T08:40:03;25.20;;;10.60;;
36377;SDS011;22402;42.746;23.606;2024-02-15T08:42:29;23.33;;;10.60;;
36377;SDS011;22402;42.746;23.606;2024-02-15T08:44:55;21.30;;;9.60;;
36377;SDS011;22402;42.746;23.606;2024-02-15T08:47:22;21.63;;;9.13;;
36377;SDS011;22402;42.746;23.606;2024-02-15T08:49:47;19.50;;;10.20;;
36377;SDS011;22402;42.746;23.606;2024-02-15T08:52:12;20.40;;;9.90;;
36377;SDS011;22402;42.746;23.606;2024-02-15T08:54:38;30.57;;;11.93;;
36377;SDS011;22402;42.746;23.606;2024-02-15T08:57:04;19.93;;;9.40;;
36377;SDS011;22402;42.746;23.606;2024-02-15T08:59:30;23.00;;;9.97;;
36377;SDS011;22402;42.746;23.606;2024-02-15T09:01:56;23.13;;;10.97;;
36377;SDS011;22402;42.746;23.606;2024-02-15T09:04:22;19.50;;;9.93;;
36377;SDS011;22402;42.746;23.606;2024-02-15T09:06:51;21.13;;;10.00;;
36377;SDS011;22402;42.746;23.606;2024-02-15T09:09:17;22.13;;;11.20;;
36377;SDS011;22402;42.746;23.606;2024-02-15T09:11:42;15.77;;;9.03;;
36377;SDS011;22402;42.746;23.606;2024-02-15T09:14:08;20.17;;;10.53;;
36377;SDS011;22402;42.746;23.606;2024-02-15T09:16:36;17.93;;;9.30;;
36377;SDS011;22402;42.746;23.606;2024-02-15T09:19:02;23.17;;;11.00;;
36377;SDS011;22402;42.746;23.606;2024-02-15T09:21:27;20.07;;;9.43;;
36377;SDS011;22402;42.746;23.606;2024-02-15T09:23:56;21.80;;;10.00;;
36377;SDS011;22402;42.746;23.606;2024-02-15T09:26:21;24.93;;;11.13;;
36377;SDS011;22402;42.746;23.606;2024-02-15T09:28:47;19.20;;;9.40;;
36377;SDS011;22402;42.746;23.606;2024-02-15T09:31:12;23.37;;;10.23;;
36377;SDS011;22402;42.746;23.606;2024-02-15T09:33:39;22.33;;;10.77;;
36377;SDS011;22402;42.746;23.606;2024-02-15T09:36:04;22.20;;;10.80;;
36377;SDS011;22402;42.746;23.606;2024-02-15T09:38:30;19.50;;;10.07;;
36377;SDS011;22402;42.746;23.606;2024-02-15T09:40:55;20.63;;;10.87;;
36377;SDS011;22402;42.746;23.606;2024-02-15T09:43:21;15.13;;;8.23;;
36377;SDS011;22402;42.746;23.606;2024-02-15T09:45:51;17.83;;;8.43;;
36377;SDS011;22402;42.746;23.606;2024-02-15T09:48:17;26.17;;;11.33;;
36377;SDS011;22402;42.746;23.606;2024-02-15T09:50:43;24.20;;;10.33;;
36377;SDS011;22402;42.746;23.606;2024-02-15T09:53:11;17.57;;;9.40;;
36377;SDS011;22402;42.746;23.606;2024-02-15T09:55:39;21.97;;;10.07;;
36377;SDS011;22402;42.746;23.606;2024-02-15T09:58:06;15.70;;;9.43;;
36377;SDS011;22402;42.746;23.606;2024-02-15T10:00:34;16.97;;;8.67;;
36377;SDS011;22402;42.746;23.606;2024-02-15T10:03:00;19.70;;;9.80;;
36377;SDS011;22402;42.746;23.606;2024-02-15T10:05:30;18.60;;;9.57;;
36377;SDS011;22402;42.746;23.606;2024-02-15T10:07:56;21.90;;;10.27;;
36377;SDS011;22402;42.746;23.606;2024-02-15T10:10:22;25.87;;;9.50;;
36377;SDS011;22402;42.746;23.606;2024-02-15T10:12:51;18.20;;;9.40;;
36377;SDS011;22402;42.746;23.606;2024-02-15T10:15:28;17.87;;;8.57;;
36377;SDS011;22402;42.746;23.606;2024-02-15T10:18:02;23.30;;;10.47;;
36377;SDS011;22402;42.746;23.606;2024-02-15T10:20:29;19.93;;;10.40;;
36377;SDS011;22402;42.746;23.606;2024-02-15T10:25:23;14.03;;;8.70;;
36377;SDS011;22402;42.746;23.606;2024-02-15T10:27:52;24.00;;;9.87;;
36377;SDS011;22402;42.746;23.606;2024-02-15T10:30:49;15.57;;;8.80;;
36377;SDS011;22402;42.746;23.606;2024-02-15T10:33:27;14.10;;;8.17;;
36377;SDS011;22402;42.746;23.606;2024-02-15T10:36:06;15.33;;;8.40;;
36377;SDS011;22402;42.746;23.606;2024-02-15T10:38:33;16.07;;;8.37;;
36377;SDS011;22402;42.746;23.606;2024-02-15T10:41:05;21.20;;;8.67;;
36377;SDS011;22402;42.746;23.606;2024-02-15T10:43:34;21.90;;;9.13;;
36377;SDS011;22402;42.746;23.606;2024-02-15T10:46:02;17.77;;;8.00;;
36377;SDS011;22402;42.746;23.606;2024-02-15T10:48:28;15.53;;;7.70;;
36377;SDS011;22402;42.746;23.606;2024-02-15T10:50:55;15.73;;;6.73;;
36377;SDS011;22402;42.746;23.606;2024-02-15T10:53:24;10.97;;;6.23;;
36377;SDS011;22402;42.746;23.606;2024-02-15T10:58:46;13.57;;;7.40;;
36377;SDS011;22402;42.746;23.606;2024-02-15T11:01:16;11.23;;;6.53;;
36377;SDS011;22402;42.746;23.606;2024-02-15T11:03:56;13.60;;;7.40;;
36377;SDS011;22402;42.746;23.606;2024-02-15T11:06:26;15.67;;;7.17;;
36377;SDS011;22402;42.746;23.606;2024-02-15T11:08:55;16.73;;;7.17;;
36377;SDS011;22402;42.746;23.606;2024-02-15T11:11:20;11.83;;;7.83;;
36377;SDS011;22402;42.746;23.606;2024-02-15T11:13:48;18.23;;;7.20;;
36377;SDS011;22402;42.746;23.606;2024-02-15T11:19:05;17.10;;;7.93;;
36377;SDS011;22402;42.746;23.606;2024-02-15T11:24:28;12.57;;;7.10;;
36377;SDS011;22402;42.746;23.606;2024-02-15T11:27:01;15.90;;;8.60;;
36377;SDS011;22402;42.746;23.606;2024-02-15T11:33:02;12.80;;;7.00;;
36377;SDS011;22402;42.746;23.606;2024-02-15T11:35:19;13.80;;;7.30;;
36377;SDS011;22402;42.746;23.606;2024-02-15T11:40:13;17.63;;;7.53;;
36377;SDS011;22402;42.746;23.606;2024-02-15T11:42:53;11.50;;;6.50;;
36377;SDS011;22402;42.746;23.606;2024-02-15T11:45:24;9.87;;;6.37;;
36377;SDS011;22402;42.746;23.606;2024-02-15T11:47:50;15.73;;;7.43;;
36377;SDS011;22402;42.746;23.606;2024-02-15T11:50:18;18.13;;;8.40;;
36377;SDS011;22402;42.746;23.606;2024-02-15T11:52:45;11.53;;;6.60;;
36377;SDS011;22402;42.746;23.606;2024-02-15T11:55:17;13.83;;;7.87;;
36377;SDS011;22402;42.746;23.606;2024-02-15T11:57:59;13.03;;;7.00;;
36377;SDS011;22402;42.746;23.606;2024-02-15T12:00:35;13.10;;;6.90;;
36377;SDS011;22402;42.746;23.606;2024-02-15T12:03:21;14.90;;;8.23;;
36377;SDS011;22402;42.746;23.606;2024-02-15T12:06:06;14.53;;;8.17;;
36377;SDS011;22402;42.746;23.606;2024-02-15T12:08:51;19.60;;;9.43;;
36377;SDS011;22402;42.746;23.606;2024-02-15T12:11:36;14.53;;;8.83;;
36377;SDS011;22402;42.746;23.606;2024-02-15T12:14:20;13.60;;;7.37;;
36377;SDS011;22402;42.746;23.606;2024-02-15T12:17:05;13.60;;;8.47;;
36377;SDS011;22402;42.746;23.606;2024-02-15T12:19:51;11.90;;;7.20;;
36377;SDS011;22402;42.746;23.606;2024-02-15T12:24:59;12.73;;;7.37;;
36377;SDS011;22402;42.746;23.606;2024-02-15T12:27:25;11.70;;;6.37;;
36377;SDS011;22402;42.746;23.606;2024-02-15T12:29:53;12.00;;;7.33;;
36377;SDS011;22402;42.746;23.606;2024-02-15T12:32:20;11.70;;;6.73;;
36377;SDS011;22402;42.746;23.606;2024-02-15T12:34:48;11.20;;;6.67;;
36377;SDS011;22402;42.746;23.606;2024-02-15T12:37:17;12.50;;;7.27;;
36377;SDS011;22402;42.746;23.606;2024-02-15T12:39:43;14.20;;;7.57;;
36377;SDS011;22402;42.746;23.606;2024-02-15T12:42:08;17.03;;;7.50;;
36377;SDS011;22402;42.746;23.606;2024-02-15T12:44:34;18.13;;;8.63;;
36377;SDS011;22402;42.746;23.606;2024-02-15T12:47:00;13.67;;;7.70;;
36377;SDS011;22402;42.746;23.606;2024-02-15T12:49:28;13.70;;;7.30;;
36377;SDS011;22402;42.746;23.606;2024-02-15T12:52:32;13.20;;;7.50;;
36377;SDS011;22402;42.746;23.606;2024-02-15T12:55:10;15.10;;;7.93;;
36377;SDS011;22402;42.746;23.606;2024-02-15T12:57:38;14.73;;;6.13;;
36377;SDS011;22402;42.746;23.606;2024-02-15T13:00:10;9.20;;;5.90;;
36377;SDS011;22402;42.746;23.606;2024-02-15T13:02:38;9.53;;;6.53;;
36377;SDS011;22402;42.746;23.606;2024-02-15T13:05:05;9.30;;;6.30;;
36377;SDS011;22402;42.746;23.606;2024-02-15T13:07:33;12.00;;;6.27;;
36377;SDS011;22402;42.746;23.606;2024-02-15T13:10:00;14.43;;;7.47;;
36377;SDS011;22402;42.746;23.606;2024-02-15T13:12:26;12.43;;;6.87;;
36377;SDS011;22402;42.746;23.606;2024-02-15T13:14:52;12.30;;;6.67;;
36377;SDS011;22402;42.746;23.606;2024-02-15T13:17:19;11.53;;;6.67;;
36377;SDS011;22402;42.746;23.606;2024-02-15T13:19:45;14.47;;;6.83;;
36377;SDS011;22402;42.746;23.606;2024-02-15T13:22:16;10.67;;;5.77;;
36377;SDS011;22402;42.746;23.606;2024-02-15T13:24:44;12.63;;;6.03;;
36377;SDS011;22402;42.746;23.606;2024-02-15T13:27:09;17.07;;;6.70;;
36377;SDS011;22402;42.746;23.606;2024-02-15T13:29:37;14.00;;;6.67;;
36377;SDS011;22402;42.746;23.606;2024-02-15T13:32:03;10.17;;;5.80;;
36377;SDS011;22402;42.746;23.606;2024-02-15T13:34:29;11.43;;;6.00;;
36377;SDS011;22402;42.746;23.606;2024-02-15T13:36:55;13.77;;;6.33;;
36377;SDS011;22402;42.746;23.606;2024-02-15T13:39:20;7.30;;;4.63;;
36377;SDS011;22402;42.746;23.606;2024-02-15T13:41:46;7.70;;;3.97;;
36377;SDS011;22402;42.746;23.606;2024-02-15T13:44:12;7.93;;;4.30;;
36377;SDS011;22402;42.746;23.606;2024-02-15T13:46:39;7.40;;;3.67;;
36377;SDS011;22402;42.746;23.606;2024-02-15T13:49:05;9.77;;;4.63;;
36377;SDS011;22402;42.746;23.606;2024-02-15T13:51:30;17.40;;;5.27;;
36377;SDS011;22402;42.746;23.606;2024-02-15T13:53:56;8.20;;;5.13;;
36377;SDS011;22402;42.746;23.606;2024-02-15T13:56:21;10.53;;;5.07;;
36377;SDS011;22402;42.746;23.606;2024-02-15T13:58:47;15.17;;;5.80;;
36377;SDS011;22402;42.746;23.606;2024-02-15T14:01:12;7.37;;;4.30;;
36377;SDS011;22402;42.746;23.606;2024-02-15T14:03:39;10.10;;;5.00;;
36377;SDS011;22402;42.746;23.606;2024-02-15T14:06:06;9.90;;;4.37;;
36377;SDS011;22402;42.746;23.606;2024-02-15T14:08:32;8.53;;;4.63;;
36377;SDS011;22402;42.746;23.606;2024-02-15T14:10:57;8.87;;;4.70;;
36377;SDS011;22402;42.746;23.606;2024-02-15T14:13:23;8.50;;;4.47;;
36377;SDS011;22402;42.746;23.606;2024-02-15T14:15:50;8.60;;;4.70;;
36377;SDS011;22402;42.746;23.606;2024-02-15T14:18:16;6.77;;;4.47;;
36377;SDS011;22402;42.746;23.606;2024-02-15T14:20:44;8.13;;;4.30;;
36377;SDS011;22402;42.746;23.606;2024-02-15T14:23:14;11.07;;;4.97;;
36377;SDS011;22402;42.746;23.606;2024-02-15T14:25:40;6.07;;;3.73;;
36377;SDS011;22402;42.746;23.606;2024-02-15T14:28:05;9.57;;;4.43;;
36377;SDS011;22402;42.746;23.606;2024-02-15T14:30:34;4.47;;;3.10;;
36377;SDS011;22402;42.746;23.606;2024-02-15T14:33:18;6.50;;;3.70;;
36377;SDS011;22402;42.746;23.606;2024-02-15T14:35:44;8.23;;;3.90;;
36377;SDS011;22402;42.746;23.606;2024-02-15T14:38:11;5.43;;;3.60;;
36377;SDS011;22402;42.746;23.606;2024-02-15T14:40:38;7.63;;;4.30;;